createdAt,value
2022-11-05T00:00:12.072Z,15.90
2022-11-05T00:03:18.352Z,15.90
2022-11-05T00:06:28.271Z,16.00
2022-11-05T00:09:31.207Z,15.80
2022-11-05T00:12:37.448Z,15.90
2022-11-05T00:15:43.497Z,15.80
2022-11-05T00:18:31.498Z,15.80
2022-11-05T00:21:37.627Z,15.80
2022-11-05T00:24:44.307Z,15.80
2022-11-05T00:27:34.347Z,15.80
2022-11-05T00:30:26.611Z,15.70
2022-11-05T00:33:14.233Z,15.60
2022-11-05T00:36:04.742Z,15.50
2022-11-05T00:38:52.216Z,15.50
2022-11-05T00:41:39.656Z,15.50
2022-11-05T00:44:46.032Z,15.60
2022-11-05T00:47:52.709Z,15.60
2022-11-05T00:50:40.381Z,15.60
2022-11-05T00:53:27.952Z,15.60
2022-11-05T00:56:15.467Z,15.60
2022-11-05T00:59:02.942Z,15.60
2022-11-05T01:01:50.517Z,15.60
2022-11-05T01:04:38.036Z,15.80
2022-11-05T01:07:25.460Z,15.70
2022-11-05T01:10:13.482Z,15.70
2022-11-05T01:13:01.067Z,15.60
2022-11-05T01:15:51.041Z,15.40
2022-11-05T01:18:39.202Z,15.40
2022-11-05T01:21:26.683Z,15.40
2022-11-05T01:24:14.088Z,15.40
2022-11-05T01:27:01.528Z,15.30
2022-11-05T01:29:49.034Z,15.20
2022-11-05T01:32:37.422Z,15.20
2022-11-05T01:35:24.922Z,15.10
2022-11-05T01:38:12.367Z,15.10
2022-11-05T01:40:59.872Z,15.10
2022-11-05T01:43:57.587Z,15.20
2022-11-05T01:46:46.823Z,15.10
2022-11-05T01:49:35.122Z,15.10
2022-11-05T01:52:25.201Z,15.20
2022-11-05T01:55:17.178Z,15.20
2022-11-05T01:58:09.886Z,15.30
2022-11-05T02:00:58.025Z,15.30
2022-11-05T02:03:48.927Z,15.40
2022-11-05T02:06:47.258Z,15.30
2022-11-05T02:09:49.898Z,15.30
2022-11-05T02:12:43.822Z,15.30
2022-11-05T02:15:46.572Z,15.30
2022-11-05T02:18:59.302Z,15.20
2022-11-05T02:22:17.832Z,15.30
2022-11-05T02:25:59.443Z,15.40
2022-11-05T02:29:11.823Z,15.40
2022-11-05T02:32:31.802Z,15.40
2022-11-05T02:35:51.562Z,15.50
2022-11-05T02:39:14.651Z,15.60
2022-11-05T02:42:07.067Z,15.50
2022-11-05T02:45:26.690Z,15.50
2022-11-05T02:48:23.739Z,15.50
2022-11-05T02:51:58.088Z,15.60
2022-11-05T02:54:58.282Z,15.50
2022-11-05T02:57:48.263Z,15.60
2022-11-05T03:00:56.163Z,15.60
2022-11-05T03:04:03.384Z,15.60
2022-11-05T03:07:20.447Z,15.50
2022-11-05T03:10:33.121Z,15.40
2022-11-05T03:13:20.753Z,15.30
2022-11-05T03:16:29.683Z,15.40
2022-11-05T03:19:39.263Z,15.30
2022-11-05T03:22:36.957Z,15.30
2022-11-05T03:25:29.417Z,15.30
2022-11-05T03:28:22.618Z,15.10
2022-11-05T03:31:16.321Z,15.30
2022-11-05T03:34:08.061Z,15.10
2022-11-05T03:36:58.102Z,15.50
2022-11-05T03:39:53.782Z,15.20
2022-11-05T03:42:47.417Z,15.40
2022-11-05T03:45:43.992Z,15.50
2022-11-05T03:48:38.444Z,15.30
2022-11-05T03:52:13.027Z,15.20
2022-11-05T03:55:00.521Z,15.10
2022-11-05T03:57:53.853Z,15.30
2022-11-05T04:00:42.002Z,15.10
2022-11-05T04:03:36.368Z,15.20
2022-11-05T04:06:42.682Z,15.30
2022-11-05T04:09:48.831Z,15.30
2022-11-05T04:12:55.088Z,15.30
2022-11-05T04:16:01.267Z,15.10
2022-11-05T04:18:48.716Z,15.20
2022-11-05T04:21:55.107Z,15.20
2022-11-05T04:24:42.618Z,15.10
2022-11-05T04:27:30.132Z,15.00
2022-11-05T04:30:20.528Z,14.90
2022-11-05T04:33:11.016Z,15.00
2022-11-05T04:36:00.405Z,14.80
2022-11-05T04:38:47.812Z,14.80
2022-11-05T04:41:35.290Z,14.70
2022-11-05T04:44:22.747Z,14.80
2022-11-05T04:47:10.193Z,14.90
2022-11-05T04:49:57.686Z,14.90
2022-11-05T04:52:45.287Z,14.90
2022-11-05T04:55:32.752Z,14.70
2022-11-05T04:58:20.751Z,14.60
2022-11-05T05:01:23.501Z,14.90
2022-11-05T05:04:11.101Z,14.90
2022-11-05T05:06:58.572Z,14.90
2022-11-05T05:09:46.061Z,14.60
2022-11-05T05:12:35.178Z,14.80
2022-11-05T05:15:23.397Z,14.70
2022-11-05T05:18:10.991Z,14.90
2022-11-05T05:21:18.453Z,14.70
2022-11-05T05:24:09.947Z,14.50
2022-11-05T05:26:57.516Z,14.60
2022-11-05T05:29:45.016Z,14.80
2022-11-05T05:32:33.048Z,14.80
2022-11-05T05:35:20.527Z,14.90
2022-11-05T05:38:07.987Z,14.90
2022-11-05T05:40:59.952Z,15.00
2022-11-05T05:43:47.704Z,15.00
2022-11-05T05:46:35.222Z,15.00
2022-11-05T05:49:22.789Z,15.00
2022-11-05T05:52:10.287Z,14.90
2022-11-05T05:54:57.736Z,15.10
2022-11-05T05:57:45.304Z,15.00
2022-11-05T06:00:32.823Z,15.10
2022-11-05T06:03:20.653Z,15.10
2022-11-05T06:06:15.222Z,15.20
2022-11-05T06:09:02.719Z,15.10
2022-11-05T06:11:50.206Z,15.10
2022-11-05T06:14:37.647Z,15.30
2022-11-05T06:17:25.182Z,15.30
2022-11-05T06:20:13.542Z,15.10
2022-11-05T06:23:01.052Z,15.30
2022-11-05T06:25:48.476Z,15.20
2022-11-05T06:28:36.651Z,15.40
2022-11-05T06:31:24.366Z,15.40
2022-11-05T06:34:11.871Z,15.50
2022-11-05T06:37:00.304Z,15.40
2022-11-05T06:39:47.924Z,15.70
2022-11-05T06:42:35.509Z,15.60
2022-11-05T06:45:23.070Z,15.80
2022-11-05T06:48:10.834Z,15.80
2022-11-05T06:50:58.953Z,15.80
2022-11-05T06:53:46.568Z,15.70
2022-11-05T06:56:34.123Z,15.80
2022-11-05T06:59:21.568Z,15.60
2022-11-05T07:02:13.081Z,15.70
2022-11-05T07:05:00.646Z,15.50
2022-11-05T07:07:48.155Z,15.70
2022-11-05T07:10:35.610Z,15.80
2022-11-05T07:13:23.106Z,15.80
2022-11-05T07:16:10.692Z,15.80
2022-11-05T07:18:58.213Z,15.80
2022-11-05T07:21:46.101Z,15.90
2022-11-05T07:24:33.540Z,16.00
2022-11-05T07:27:21.110Z,16.00
2022-11-05T07:30:10.732Z,16.20
2022-11-05T07:32:58.276Z,16.20
2022-11-05T07:35:45.765Z,16.30
2022-11-05T07:38:33.899Z,16.30
2022-11-05T07:41:21.366Z,15.90
2022-11-05T07:44:09.021Z,16.40
2022-11-05T07:46:56.465Z,16.40
2022-11-05T07:49:43.910Z,16.40
2022-11-05T07:52:34.453Z,16.00
2022-11-05T07:55:22.022Z,16.10
2022-11-05T07:58:11.086Z,16.30
2022-11-05T08:00:58.596Z,16.10
2022-11-05T08:03:46.409Z,15.90
2022-11-05T08:06:33.931Z,15.80
2022-11-05T08:09:21.391Z,16.10
2022-11-05T08:12:09.472Z,16.10
2022-11-05T08:14:56.916Z,16.30
2022-11-05T08:17:44.561Z,16.40
2022-11-05T08:20:33.167Z,16.60
2022-11-05T08:23:20.891Z,16.80
2022-11-05T08:26:08.372Z,17.00
2022-11-05T08:28:55.777Z,17.10
2022-11-05T08:31:43.221Z,17.00
2022-11-05T08:34:30.896Z,16.90
2022-11-05T08:37:18.531Z,16.90
2022-11-05T08:40:07.290Z,16.60
2022-11-05T08:42:58.618Z,17.00
2022-11-05T08:45:46.400Z,17.00
2022-11-05T08:48:33.911Z,17.20
2022-11-05T08:51:21.406Z,17.00
2022-11-05T08:54:08.983Z,17.40
2022-11-05T08:56:56.477Z,17.20
2022-11-05T08:59:44.168Z,17.30
2022-11-05T09:02:31.805Z,17.50
2022-11-05T09:05:19.567Z,17.40
2022-11-05T09:08:10.383Z,17.80
2022-11-05T09:10:57.997Z,17.30
2022-11-05T09:13:45.438Z,18.00
2022-11-05T09:16:34.471Z,17.90
2022-11-05T09:19:21.990Z,18.20
2022-11-05T09:22:12.731Z,18.30
2022-11-05T09:25:00.176Z,18.10
2022-11-05T09:27:47.695Z,18.30
2022-11-05T09:30:35.244Z,17.90
2022-11-05T09:33:25.796Z,17.90
2022-11-05T09:36:13.266Z,17.90
2022-11-05T09:39:01.201Z,18.20
2022-11-05T09:41:50.012Z,18.30
2022-11-05T09:45:05.521Z,18.50
2022-11-05T09:48:17.931Z,18.20
2022-11-05T09:51:06.405Z,18.60
2022-11-05T09:53:54.161Z,18.40
2022-11-05T09:56:42.327Z,18.40
2022-11-05T09:59:46.030Z,18.80
2022-11-05T10:02:42.275Z,18.80
2022-11-05T10:05:32.627Z,18.60
2022-11-05T10:08:27.452Z,18.50
2022-11-05T10:11:28.496Z,18.50
2022-11-05T10:14:26.070Z,18.90
2022-11-05T10:17:27.456Z,18.80
2022-11-05T10:20:35.333Z,18.80
2022-11-05T10:23:25.598Z,19.30
2022-11-05T10:26:20.065Z,19.50
2022-11-05T10:29:10.111Z,19.30
2022-11-05T10:32:01.432Z,19.40
2022-11-05T10:34:51.830Z,19.70
2022-11-05T10:37:41.016Z,19.50
2022-11-05T10:40:43.253Z,19.60
2022-11-05T10:43:54.975Z,19.70
2022-11-05T10:47:40.295Z,19.70
2022-11-05T10:50:30.333Z,20.10
2022-11-05T10:53:24.185Z,19.50
2022-11-05T10:56:34.860Z,19.90
2022-11-05T10:59:26.619Z,19.90
2022-11-05T11:02:28.453Z,20.10
2022-11-05T11:05:39.443Z,20.30
2022-11-05T11:08:29.657Z,20.30
2022-11-05T11:11:42.825Z,20.20
2022-11-05T11:14:31.143Z,20.10
2022-11-05T11:17:28.721Z,19.80
2022-11-05T11:20:28.696Z,19.70
2022-11-05T11:23:17.887Z,19.10
2022-11-05T11:26:06.185Z,19.20
2022-11-05T11:29:00.944Z,19.20
2022-11-05T11:31:48.546Z,19.30
2022-11-05T11:34:39.843Z,19.20
2022-11-05T11:37:34.030Z,19.50
2022-11-05T11:40:33.546Z,19.30
2022-11-05T11:43:30.746Z,19.20
2022-11-05T11:46:21.273Z,18.70
2022-11-05T11:49:42.427Z,18.70
2022-11-05T11:52:37.687Z,19.00
2022-11-05T11:55:25.351Z,19.30
2022-11-05T11:58:12.797Z,19.10
2022-11-05T12:01:33.106Z,19.60
2022-11-05T12:04:37.324Z,19.10
2022-11-05T12:07:45.374Z,18.60
2022-11-05T12:10:53.372Z,19.30
2022-11-05T12:14:22.727Z,18.90
2022-11-05T12:17:28.700Z,18.60
2022-11-05T12:20:37.356Z,18.20
2022-11-05T12:23:52.170Z,18.10
2022-11-05T12:27:03.913Z,18.30
2022-11-05T12:30:00.148Z,17.90
2022-11-05T12:33:20.862Z,18.40
2022-11-05T12:36:26.231Z,18.70
2022-11-05T12:40:15.947Z,18.70
2022-11-05T12:43:53.383Z,19.20
2022-11-05T12:47:04.133Z,18.70
2022-11-05T12:50:21.024Z,19.10
2022-11-05T12:53:53.874Z,18.50
2022-11-05T12:56:45.861Z,19.00
2022-11-05T12:59:55.242Z,18.80
2022-11-05T13:03:07.456Z,18.80
2022-11-05T13:06:05.631Z,18.80
2022-11-05T13:09:15.932Z,18.30
2022-11-05T13:12:16.889Z,18.90
2022-11-05T13:15:45.992Z,18.50
2022-11-05T13:18:47.242Z,18.30
2022-11-05T13:21:37.222Z,17.60
2022-11-05T13:24:34.670Z,18.20
2022-11-05T13:27:50.498Z,18.60
2022-11-05T13:30:44.955Z,18.60
2022-11-05T13:33:39.339Z,18.50
2022-11-05T13:36:53.755Z,18.80
2022-11-05T13:39:58.616Z,18.40
2022-11-05T13:43:10.348Z,18.80
2022-11-05T13:46:32.891Z,18.80
2022-11-05T13:49:47.753Z,18.80
2022-11-05T13:53:05.779Z,18.70
2022-11-05T13:56:27.256Z,18.60
2022-11-05T13:59:56.817Z,18.60
2022-11-05T14:03:06.216Z,18.90
2022-11-05T14:06:07.427Z,18.60
2022-11-05T14:09:02.577Z,18.50
2022-11-05T14:11:58.286Z,18.60
2022-11-05T14:14:58.506Z,18.50
2022-11-05T14:18:06.208Z,18.40
2022-11-05T14:21:03.170Z,18.70
2022-11-05T14:23:57.031Z,18.30
2022-11-05T14:26:44.871Z,18.30
2022-11-05T14:29:41.872Z,18.20
2022-11-05T14:32:46.066Z,18.00
2022-11-05T14:35:38.741Z,18.30
2022-11-05T14:38:28.509Z,18.00
2022-11-05T14:41:16.902Z,18.00
2022-11-05T14:44:08.227Z,18.10
2022-11-05T14:47:02.493Z,18.20
2022-11-05T14:50:14.099Z,18.20
2022-11-05T14:53:24.258Z,18.10
2022-11-05T14:56:18.185Z,18.00
2022-11-05T14:59:24.477Z,18.10
2022-11-05T15:02:21.880Z,17.60
2022-11-05T15:05:48.111Z,18.00
2022-11-05T15:08:49.116Z,18.10
2022-11-05T15:12:25.823Z,18.00
2022-11-05T15:15:44.543Z,17.90
2022-11-05T15:18:45.763Z,17.90
2022-11-05T15:21:37.633Z,17.80
2022-11-05T15:24:30.097Z,18.00
2022-11-05T15:27:39.895Z,17.80
2022-11-05T15:30:27.476Z,17.70
2022-11-05T15:33:23.287Z,17.70
2022-11-05T15:36:31.552Z,17.90
2022-11-05T15:39:33.129Z,17.80
2022-11-05T15:42:24.825Z,17.60
2022-11-05T15:45:21.363Z,17.50
2022-11-05T15:48:19.361Z,17.80
2022-11-05T15:51:07.106Z,17.80
2022-11-05T15:54:29.030Z,17.70
2022-11-05T15:57:29.701Z,17.60
2022-11-05T16:00:23.611Z,17.50
2022-11-05T16:03:22.820Z,17.60
2022-11-05T16:06:10.611Z,17.60
2022-11-05T16:08:58.241Z,17.70
2022-11-05T16:11:45.741Z,17.60
2022-11-05T16:14:35.692Z,17.60
2022-11-05T16:17:27.248Z,17.50
2022-11-05T16:20:41.383Z,17.60
2022-11-05T16:23:57.688Z,17.60
2022-11-05T16:27:02.678Z,17.60
2022-11-05T16:29:57.551Z,17.60
2022-11-05T16:32:46.772Z,17.50
2022-11-05T16:35:40.086Z,17.50
2022-11-05T16:38:28.405Z,17.60
2022-11-05T16:41:19.267Z,17.50
2022-11-05T16:44:06.631Z,17.60
2022-11-05T16:46:54.226Z,17.50
2022-11-05T16:49:42.194Z,17.50
2022-11-05T16:52:29.920Z,17.40
2022-11-05T16:55:19.068Z,17.50
2022-11-05T16:58:17.185Z,17.40
2022-11-05T17:01:11.866Z,17.60
2022-11-05T17:03:59.434Z,17.50
2022-11-05T17:06:49.077Z,17.50
2022-11-05T17:09:36.718Z,17.40
2022-11-05T17:12:24.355Z,17.30
2022-11-05T17:15:26.039Z,17.30
2022-11-05T17:18:18.447Z,17.30
2022-11-05T17:21:07.686Z,17.30
2022-11-05T17:23:55.366Z,17.30
2022-11-05T17:26:43.026Z,17.30
2022-11-05T17:29:30.783Z,17.30
2022-11-05T17:32:18.285Z,17.30
2022-11-05T17:35:07.472Z,17.20
2022-11-05T17:37:55.141Z,17.30
2022-11-05T17:40:42.963Z,17.30
2022-11-05T17:43:30.561Z,17.40
2022-11-05T17:46:19.412Z,17.40
2022-11-05T17:49:07.235Z,17.30
2022-11-05T17:51:54.851Z,17.30
2022-11-05T17:54:42.260Z,17.30
2022-11-05T17:57:29.805Z,17.20
2022-11-05T18:00:21.580Z,17.20
2022-11-05T18:03:11.633Z,17.10
2022-11-05T18:06:07.216Z,17.30
2022-11-05T18:08:54.704Z,17.20
2022-11-05T18:11:42.891Z,17.20
2022-11-05T18:14:30.489Z,17.20
2022-11-05T18:17:18.065Z,17.20
2022-11-05T18:20:11.711Z,17.20
2022-11-05T18:23:02.006Z,17.20
2022-11-05T18:25:49.461Z,17.20
2022-11-05T18:28:37.737Z,17.10
2022-11-05T18:31:25.166Z,17.10
2022-11-05T18:34:12.662Z,17.10
2022-11-05T18:37:00.190Z,17.10
2022-11-05T18:39:52.217Z,17.10
2022-11-05T18:42:39.952Z,17.20
2022-11-05T18:45:29.878Z,17.20
2022-11-05T18:48:17.494Z,17.20
2022-11-05T18:51:14.163Z,17.10
2022-11-05T18:54:01.602Z,17.10
2022-11-05T18:56:49.016Z,17.10
2022-11-05T18:59:39.013Z,17.10
2022-11-05T19:02:26.956Z,17.10
2022-11-05T19:05:28.390Z,17.10
2022-11-05T19:08:16.661Z,17.10
2022-11-05T19:11:15.286Z,17.10
2022-11-05T19:14:02.877Z,17.10
2022-11-05T19:16:50.347Z,17.20
2022-11-05T19:19:38.755Z,17.10
2022-11-05T19:22:26.531Z,17.10
2022-11-05T19:25:14.001Z,17.10
2022-11-05T19:28:03.087Z,17.00
2022-11-05T19:30:50.622Z,17.10
2022-11-05T19:33:38.273Z,17.10
2022-11-05T19:36:25.930Z,16.90
2022-11-05T19:39:15.007Z,16.90
2022-11-05T19:42:03.713Z,16.90
2022-11-05T19:44:51.742Z,17.00
2022-11-05T19:47:39.591Z,17.00
2022-11-05T19:50:27.145Z,16.80
2022-11-05T19:53:14.681Z,16.80
2022-11-05T19:56:13.017Z,16.70
2022-11-05T19:59:03.379Z,16.70
2022-11-05T20:01:51.123Z,16.70
2022-11-05T20:04:38.652Z,16.60
2022-11-05T20:07:26.823Z,16.30
2022-11-05T20:10:14.452Z,16.20
2022-11-05T20:13:01.964Z,16.20
2022-11-05T20:15:49.536Z,16.30
2022-11-05T20:18:37.901Z,16.20
2022-11-05T20:21:25.494Z,16.10
2022-11-05T20:24:22.410Z,16.00
2022-11-05T20:27:11.596Z,15.80
2022-11-05T20:29:59.214Z,15.60
2022-11-05T20:32:46.715Z,15.90
2022-11-05T20:35:34.266Z,15.70
2022-11-05T20:38:22.540Z,15.80
2022-11-05T20:41:12.765Z,15.70
2022-11-05T20:44:00.311Z,15.60
2022-11-05T20:46:48.051Z,15.40
2022-11-05T20:49:35.648Z,15.30
2022-11-05T20:52:23.246Z,15.20
2022-11-05T20:55:10.881Z,15.20
2022-11-05T20:57:58.386Z,15.20
2022-11-05T21:00:54.221Z,15.30
2022-11-05T21:03:41.713Z,15.30
2022-11-05T21:06:30.086Z,15.30
2022-11-05T21:09:17.636Z,15.20
2022-11-05T21:12:11.172Z,15.20
2022-11-05T21:14:58.610Z,15.10
2022-11-05T21:17:46.752Z,15.10
2022-11-05T21:20:34.214Z,15.00
2022-11-05T21:23:22.036Z,15.00
2022-11-05T21:26:13.356Z,15.00
2022-11-05T21:29:00.846Z,14.90
2022-11-05T21:31:48.752Z,14.80
2022-11-05T21:34:36.381Z,14.80
2022-11-05T21:37:24.073Z,14.70
2022-11-05T21:40:12.230Z,14.70
2022-11-05T21:42:59.713Z,14.60
2022-11-05T21:45:47.218Z,14.60
2022-11-05T21:48:34.737Z,14.60
2022-11-05T21:51:41.786Z,14.50
2022-11-05T21:54:47.976Z,14.40
2022-11-05T21:57:54.185Z,14.30
2022-11-05T22:00:41.658Z,14.30
2022-11-05T22:03:30.165Z,14.20
2022-11-05T22:06:17.646Z,14.10
2022-11-05T22:09:05.812Z,14.10
2022-11-05T22:11:53.916Z,14.10
2022-11-05T22:14:41.746Z,14.10
2022-11-05T22:17:29.211Z,14.10
2022-11-05T22:20:17.595Z,14.10
2022-11-05T22:23:10.027Z,14.10
2022-11-05T22:26:01.246Z,14.10
2022-11-05T22:28:48.731Z,14.10
2022-11-05T22:31:36.951Z,14.00
2022-11-05T22:34:25.792Z,14.10
2022-11-05T22:37:13.751Z,14.00
2022-11-05T22:40:01.229Z,14.00
2022-11-05T22:42:48.721Z,13.90
2022-11-05T22:45:37.006Z,13.90
2022-11-05T22:48:24.501Z,13.90
2022-11-05T22:51:16.366Z,13.90
2022-11-05T22:54:05.332Z,13.80
2022-11-05T22:56:53.847Z,13.80
2022-11-05T22:59:41.341Z,13.90
2022-11-05T23:02:28.880Z,13.90
2022-11-05T23:05:16.531Z,13.70
2022-11-05T23:08:39.588Z,13.70
2022-11-05T23:11:38.152Z,13.60
2022-11-05T23:14:25.967Z,13.40
2022-11-05T23:17:32.291Z,13.40
2022-11-05T23:20:42.054Z,13.30
2022-11-05T23:23:48.186Z,13.20
2022-11-05T23:26:50.667Z,13.20
2022-11-05T23:29:38.286Z,13.20
2022-11-05T23:32:28.252Z,13.20
2022-11-05T23:35:16.480Z,13.20
2022-11-05T23:38:22.771Z,13.10
2022-11-05T23:41:28.751Z,13.10
2022-11-05T23:44:34.807Z,13.00
2022-11-05T23:47:40.836Z,13.00
2022-11-05T23:50:33.106Z,13.00
2022-11-05T23:53:23.330Z,13.00
2022-11-05T23:56:15.045Z,13.10
2022-11-05T23:59:04.833Z,13.10
